sensor_id;sensor_type;location;lat;lon;timestamp;P1;durP1;ratioP1;P2;durP2;ratioP2
11761;SDS011;5938;47.098;15.474;2022-08-05T00:02:54;7.30;;;6.70;;
11761;SDS011;5938;47.098;15.474;2022-08-05T00:06:59;6.00;;;5.50;;
11761;SDS011;5938;47.098;15.474;2022-08-05T00:11:23;6.47;;;5.87;;
11761;SDS011;5938;47.098;15.474;2022-08-05T00:15:35;6.13;;;5.63;;
11761;SDS011;5938;47.098;15.474;2022-08-05T00:19:58;7.37;;;6.70;;
11761;SDS011;5938;47.098;15.474;2022-08-05T00:24:05;7.20;;;6.60;;
11761;SDS011;5938;47.098;15.474;2022-08-05T00:28:11;6.70;;;5.93;;
11761;SDS011;5938;47.098;15.474;2022-08-05T00:32:15;5.93;;;5.43;;
11761;SDS011;5938;47.098;15.474;2022-08-05T00:36:18;5.97;;;5.47;;
11761;SDS011;5938;47.098;15.474;2022-08-05T00:40:48;7.60;;;7.00;;
11761;SDS011;5938;47.098;15.474;2022-08-05T00:44:53;6.63;;;6.10;;
11761;SDS011;5938;47.098;15.474;2022-08-05T00:48:57;6.50;;;6.00;;
11761;SDS011;5938;47.098;15.474;2022-08-05T00:53:00;6.80;;;6.07;;
11761;SDS011;5938;47.098;15.474;2022-08-05T00:57:11;7.30;;;6.60;;
11761;SDS011;5938;47.098;15.474;2022-08-05T01:01:15;6.27;;;5.77;;
11761;SDS011;5938;47.098;15.474;2022-08-05T01:05:38;6.63;;;6.03;;
11761;SDS011;5938;47.098;15.474;2022-08-05T01:09:42;6.70;;;6.10;;
11761;SDS011;5938;47.098;15.474;2022-08-05T01:13:59;6.30;;;5.70;;
11761;SDS011;5938;47.098;15.474;2022-08-05T01:18:11;6.67;;;6.10;;
11761;SDS011;5938;47.098;15.474;2022-08-05T01:22:27;6.90;;;6.30;;
11761;SDS011;5938;47.098;15.474;2022-08-05T01:26:43;6.57;;;6.03;;
11761;SDS011;5938;47.098;15.474;2022-08-05T01:31:03;6.73;;;6.17;;
11761;SDS011;5938;47.098;15.474;2022-08-05T01:35:12;6.60;;;6.07;;
11761;SDS011;5938;47.098;15.474;2022-08-05T01:39:38;7.10;;;5.40;;
11761;SDS011;5938;47.098;15.474;2022-08-05T01:43:48;8.03;;;6.70;;
11761;SDS011;5938;47.098;15.474;2022-08-05T01:47:55;7.13;;;6.53;;
11761;SDS011;5938;47.098;15.474;2022-08-05T01:52:03;6.30;;;5.80;;
11761;SDS011;5938;47.098;15.474;2022-08-05T01:56:18;8.00;;;6.47;;
11761;SDS011;5938;47.098;15.474;2022-08-05T02:00:44;6.50;;;5.77;;
11761;SDS011;5938;47.098;15.474;2022-08-05T02:04:55;7.13;;;6.53;;
11761;SDS011;5938;47.098;15.474;2022-08-05T02:09:00;7.70;;;7.00;;
11761;SDS011;5938;47.098;15.474;2022-08-05T02:13:04;7.03;;;6.43;;
11761;SDS011;5938;47.098;15.474;2022-08-05T02:17:18;6.03;;;5.53;;
11761;SDS011;5938;47.098;15.474;2022-08-05T02:21:53;6.33;;;5.83;;
11761;SDS011;5938;47.098;15.474;2022-08-05T02:26:01;6.57;;;6.07;;
11761;SDS011;5938;47.098;15.474;2022-08-05T02:30:09;7.60;;;7.00;;
11761;SDS011;5938;47.098;15.474;2022-08-05T02:34:14;5.63;;;5.23;;
11761;SDS011;5938;47.098;15.474;2022-08-05T02:38:20;6.20;;;5.70;;
11761;SDS011;5938;47.098;15.474;2022-08-05T02:42:28;7.40;;;6.80;;
11761;SDS011;5938;47.098;15.474;2022-08-05T02:46:37;7.00;;;6.40;;
11761;SDS011;5938;47.098;15.474;2022-08-05T02:50:58;7.10;;;6.50;;
11761;SDS011;5938;47.098;15.474;2022-08-05T02:55:05;8.80;;;8.10;;
11761;SDS011;5938;47.098;15.474;2022-08-05T02:59:12;8.13;;;7.43;;
11761;SDS011;5938;47.098;15.474;2022-08-05T03:03:27;7.60;;;7.00;;
11761;SDS011;5938;47.098;15.474;2022-08-05T03:07:34;7.90;;;7.20;;
11761;SDS011;5938;47.098;15.474;2022-08-05T03:12:01;6.90;;;6.30;;
11761;SDS011;5938;47.098;15.474;2022-08-05T03:16:04;7.27;;;6.63;;
11761;SDS011;5938;47.098;15.474;2022-08-05T03:20:09;7.40;;;6.77;;
11761;SDS011;5938;47.098;15.474;2022-08-05T03:24:14;7.70;;;7.00;;
11761;SDS011;5938;47.098;15.474;2022-08-05T03:28:31;7.97;;;7.27;;
11761;SDS011;5938;47.098;15.474;2022-08-05T03:32:35;6.70;;;6.10;;
11761;SDS011;5938;47.098;15.474;2022-08-05T03:36:40;7.63;;;6.93;;
11761;SDS011;5938;47.098;15.474;2022-08-05T03:40:44;8.43;;;6.20;;
11761;SDS011;5938;47.098;15.474;2022-08-05T03:44:50;7.37;;;6.70;;
11761;SDS011;5938;47.098;15.474;2022-08-05T03:48:54;7.53;;;6.83;;
11761;SDS011;5938;47.098;15.474;2022-08-05T03:52:59;7.00;;;6.40;;
11761;SDS011;5938;47.098;15.474;2022-08-05T03:57:27;7.23;;;6.60;;
11761;SDS011;5938;47.098;15.474;2022-08-05T04:01:45;6.80;;;6.20;;
11761;SDS011;5938;47.098;15.474;2022-08-05T04:05:50;6.80;;;6.30;;
11761;SDS011;5938;47.098;15.474;2022-08-05T04:09:54;7.63;;;6.93;;
11761;SDS011;5938;47.098;15.474;2022-08-05T04:14:02;8.00;;;7.20;;
11761;SDS011;5938;47.098;15.474;2022-08-05T04:18:08;7.50;;;6.80;;
11761;SDS011;5938;47.098;15.474;2022-08-05T04:22:25;9.83;;;7.93;;
11761;SDS011;5938;47.098;15.474;2022-08-05T04:26:29;7.90;;;7.20;;
11761;SDS011;5938;47.098;15.474;2022-08-05T04:30:33;7.30;;;6.70;;
11761;SDS011;5938;47.098;15.474;2022-08-05T04:34:37;8.30;;;7.50;;
11761;SDS011;5938;47.098;15.474;2022-08-05T04:38:43;8.00;;;7.30;;
11761;SDS011;5938;47.098;15.474;2022-08-05T04:42:52;6.70;;;6.20;;
11761;SDS011;5938;47.098;15.474;2022-08-05T04:46:56;7.00;;;6.50;;
11761;SDS011;5938;47.098;15.474;2022-08-05T04:51:01;7.93;;;7.20;;
11761;SDS011;5938;47.098;15.474;2022-08-05T04:55:12;7.23;;;6.53;;
11761;SDS011;5938;47.098;15.474;2022-08-05T04:59:15;6.60;;;5.90;;
11761;SDS011;5938;47.098;15.474;2022-08-05T05:03:37;7.70;;;7.00;;
11761;SDS011;5938;47.098;15.474;2022-08-05T05:07:44;10.00;;;7.03;;
11761;SDS011;5938;47.098;15.474;2022-08-05T05:11:56;8.33;;;7.27;;
11761;SDS011;5938;47.098;15.474;2022-08-05T05:16:03;8.37;;;7.57;;
11761;SDS011;5938;47.098;15.474;2022-08-05T05:20:08;6.37;;;5.87;;
11761;SDS011;5938;47.098;15.474;2022-08-05T05:24:13;7.53;;;6.83;;
11761;SDS011;5938;47.098;15.474;2022-08-05T05:28:18;7.90;;;7.20;;
11761;SDS011;5938;47.098;15.474;2022-08-05T05:32:25;7.63;;;6.93;;
11761;SDS011;5938;47.098;15.474;2022-08-05T05:36:30;7.37;;;6.70;;
11761;SDS011;5938;47.098;15.474;2022-08-05T05:40:39;7.30;;;6.70;;
11761;SDS011;5938;47.098;15.474;2022-08-05T05:44:51;7.50;;;6.90;;
11761;SDS011;5938;47.098;15.474;2022-08-05T05:49:00;8.60;;;7.90;;
11761;SDS011;5938;47.098;15.474;2022-08-05T05:53:23;8.37;;;6.97;;
11761;SDS011;5938;47.098;15.474;2022-08-05T05:57:29;9.17;;;6.70;;
11761;SDS011;5938;47.098;15.474;2022-08-05T06:01:52;7.60;;;6.90;;
11761;SDS011;5938;47.098;15.474;2022-08-05T06:05:58;8.17;;;7.57;;
11761;SDS011;5938;47.098;15.474;2022-08-05T06:10:01;8.57;;;7.77;;
11761;SDS011;5938;47.098;15.474;2022-08-05T06:14:12;6.63;;;6.13;;
11761;SDS011;5938;47.098;15.474;2022-08-05T06:18:17;9.93;;;6.47;;
11761;SDS011;5938;47.098;15.474;2022-08-05T06:22:32;7.13;;;6.53;;
11761;SDS011;5938;47.098;15.474;2022-08-05T06:26:36;7.77;;;7.17;;
11761;SDS011;5938;47.098;15.474;2022-08-05T06:30:54;7.27;;;6.53;;
11761;SDS011;5938;47.098;15.474;2022-08-05T06:34:57;7.30;;;6.00;;
11761;SDS011;5938;47.098;15.474;2022-08-05T06:39:15;6.73;;;6.03;;
11761;SDS011;5938;47.098;15.474;2022-08-05T06:43:22;6.87;;;6.37;;
11761;SDS011;5938;47.098;15.474;2022-08-05T06:47:47;7.47;;;6.77;;
11761;SDS011;5938;47.098;15.474;2022-08-05T06:52:10;7.50;;;6.80;;
11761;SDS011;5938;47.098;15.474;2022-08-05T06:56:33;7.10;;;6.40;;
11761;SDS011;5938;47.098;15.474;2022-08-05T07:00:37;6.67;;;6.17;;
11761;SDS011;5938;47.098;15.474;2022-08-05T07:04:43;7.87;;;7.07;;
11761;SDS011;5938;47.098;15.474;2022-08-05T07:08:48;7.17;;;6.67;;
11761;SDS011;5938;47.098;15.474;2022-08-05T07:12:55;8.30;;;7.60;;
11761;SDS011;5938;47.098;15.474;2022-08-05T07:17:37;19.60;;;10.77;;
11761;SDS011;5938;47.098;15.474;2022-08-05T07:22:02;7.10;;;6.50;;
11761;SDS011;5938;47.098;15.474;2022-08-05T07:26:08;6.77;;;6.17;;
11761;SDS011;5938;47.098;15.474;2022-08-05T07:30:14;6.90;;;6.40;;
11761;SDS011;5938;47.098;15.474;2022-08-05T07:34:28;6.13;;;5.63;;
11761;SDS011;5938;47.098;15.474;2022-08-05T07:38:34;7.20;;;6.60;;
11761;SDS011;5938;47.098;15.474;2022-08-05T07:42:44;6.20;;;5.70;;
11761;SDS011;5938;47.098;15.474;2022-08-05T07:46:48;5.90;;;5.43;;
11761;SDS011;5938;47.098;15.474;2022-08-05T07:50:51;6.73;;;5.90;;
11761;SDS011;5938;47.098;15.474;2022-08-05T07:54:56;6.63;;;6.03;;
11761;SDS011;5938;47.098;15.474;2022-08-05T07:59:00;6.40;;;5.80;;
11761;SDS011;5938;47.098;15.474;2022-08-05T08:03:08;6.27;;;5.77;;
11761;SDS011;5938;47.098;15.474;2022-08-05T08:07:16;6.80;;;6.20;;
11761;SDS011;5938;47.098;15.474;2022-08-05T08:11:25;7.63;;;6.97;;
11761;SDS011;5938;47.098;15.474;2022-08-05T08:15:49;7.07;;;6.50;;
11761;SDS011;5938;47.098;15.474;2022-08-05T08:20:12;6.40;;;5.90;;
11761;SDS011;5938;47.098;15.474;2022-08-05T08:24:36;5.90;;;5.50;;
11761;SDS011;5938;47.098;15.474;2022-08-05T08:28:53;6.17;;;5.57;;
11761;SDS011;5938;47.098;15.474;2022-08-05T08:33:17;8.83;;;7.97;;
11761;SDS011;5938;47.098;15.474;2022-08-05T08:37:23;5.47;;;5.17;;
11761;SDS011;5938;47.098;15.474;2022-08-05T08:41:37;6.40;;;5.90;;
11761;SDS011;5938;47.098;15.474;2022-08-05T08:46:02;6.17;;;5.57;;
11761;SDS011;5938;47.098;15.474;2022-08-05T08:50:06;6.40;;;5.63;;
11761;SDS011;5938;47.098;15.474;2022-08-05T08:54:33;6.00;;;5.60;;
11761;SDS011;5938;47.098;15.474;2022-08-05T08:58:42;5.30;;;4.80;;
11761;SDS011;5938;47.098;15.474;2022-08-05T09:02:50;5.80;;;5.40;;
11761;SDS011;5938;47.098;15.474;2022-08-05T09:06:55;5.40;;;5.00;;
11761;SDS011;5938;47.098;15.474;2022-08-05T09:10:59;6.73;;;6.03;;
11761;SDS011;5938;47.098;15.474;2022-08-05T09:15:04;5.40;;;5.00;;
11761;SDS011;5938;47.098;15.474;2022-08-05T09:19:14;6.20;;;5.70;;
11761;SDS011;5938;47.098;15.474;2022-08-05T09:23:27;5.40;;;5.00;;
11761;SDS011;5938;47.098;15.474;2022-08-05T09:27:44;5.77;;;5.27;;
11761;SDS011;5938;47.098;15.474;2022-08-05T09:32:07;5.40;;;5.00;;
11761;SDS011;5938;47.098;15.474;2022-08-05T09:36:40;5.90;;;5.50;;
11761;SDS011;5938;47.098;15.474;2022-08-05T09:41:03;5.77;;;5.33;;
11761;SDS011;5938;47.098;15.474;2022-08-05T09:45:14;5.50;;;5.10;;
11761;SDS011;5938;47.098;15.474;2022-08-05T09:49:42;6.53;;;5.37;;
11761;SDS011;5938;47.098;15.474;2022-08-05T09:54:04;6.40;;;5.90;;
11761;SDS011;5938;47.098;15.474;2022-08-05T09:58:10;5.10;;;4.70;;
11761;SDS011;5938;47.098;15.474;2022-08-05T10:02:29;5.50;;;5.10;;
11761;SDS011;5938;47.098;15.474;2022-08-05T10:06:33;5.30;;;4.90;;
11761;SDS011;5938;47.098;15.474;2022-08-05T10:10:51;6.27;;;5.87;;
11761;SDS011;5938;47.098;15.474;2022-08-05T10:15:09;5.30;;;5.00;;
11761;SDS011;5938;47.098;15.474;2022-08-05T10:19:17;5.73;;;5.27;;
11761;SDS011;5938;47.098;15.474;2022-08-05T10:23:33;4.80;;;4.40;;
11761;SDS011;5938;47.098;15.474;2022-08-05T10:27:59;4.57;;;4.17;;
11761;SDS011;5938;47.098;15.474;2022-08-05T10:32:19;5.67;;;5.23;;
11761;SDS011;5938;47.098;15.474;2022-08-05T10:36:44;5.40;;;4.60;;
11761;SDS011;5938;47.098;15.474;2022-08-05T10:40:51;5.30;;;5.00;;
11761;SDS011;5938;47.098;15.474;2022-08-05T10:45:01;5.30;;;4.90;;
11761;SDS011;5938;47.098;15.474;2022-08-05T10:49:24;5.77;;;5.37;;
11761;SDS011;5938;47.098;15.474;2022-08-05T10:53:35;5.50;;;5.10;;
11761;SDS011;5938;47.098;15.474;2022-08-05T10:57:45;4.70;;;4.30;;
11761;SDS011;5938;47.098;15.474;2022-08-05T11:02:06;5.33;;;5.03;;
11761;SDS011;5938;47.098;15.474;2022-08-05T11:06:30;5.10;;;4.80;;
11761;SDS011;5938;47.098;15.474;2022-08-05T11:10:35;5.07;;;4.67;;
11761;SDS011;5938;47.098;15.474;2022-08-05T11:15:06;4.47;;;4.20;;
11761;SDS011;5938;47.098;15.474;2022-08-05T11:19:26;4.90;;;4.60;;
11761;SDS011;5938;47.098;15.474;2022-08-05T11:23:51;4.20;;;3.90;;
11761;SDS011;5938;47.098;15.474;2022-08-05T11:42:30;5.10;;;4.47;;
11761;SDS011;5938;47.098;15.474;2022-08-05T11:46:41;4.83;;;4.50;;
11761;SDS011;5938;47.098;15.474;2022-08-05T11:51:05;4.43;;;4.20;;
11761;SDS011;5938;47.098;15.474;2022-08-05T11:55:12;5.07;;;4.77;;
11761;SDS011;5938;47.098;15.474;2022-08-05T11:59:16;4.47;;;4.27;;
11761;SDS011;5938;47.098;15.474;2022-08-05T12:03:21;6.13;;;5.60;;
11761;SDS011;5938;47.098;15.474;2022-08-05T12:07:32;5.73;;;5.33;;
11761;SDS011;5938;47.098;15.474;2022-08-05T12:11:58;4.30;;;4.10;;
11761;SDS011;5938;47.098;15.474;2022-08-05T12:16:03;4.80;;;4.50;;
11761;SDS011;5938;47.098;15.474;2022-08-05T12:20:15;5.63;;;5.23;;
11761;SDS011;5938;47.098;15.474;2022-08-05T12:24:34;4.27;;;3.87;;
11761;SDS011;5938;47.098;15.474;2022-08-05T12:28:51;4.70;;;4.40;;
11761;SDS011;5938;47.098;15.474;2022-08-05T12:32:54;4.37;;;4.10;;
11761;SDS011;5938;47.098;15.474;2022-08-05T12:37:19;4.77;;;4.40;;
11761;SDS011;5938;47.098;15.474;2022-08-05T12:41:30;4.63;;;4.33;;
11761;SDS011;5938;47.098;15.474;2022-08-05T12:45:36;4.80;;;4.50;;
11761;SDS011;5938;47.098;15.474;2022-08-05T12:49:50;5.17;;;4.87;;
11761;SDS011;5938;47.098;15.474;2022-08-05T12:54:06;4.70;;;4.40;;
11761;SDS011;5938;47.098;15.474;2022-08-05T12:58:24;5.40;;;5.10;;
11761;SDS011;5938;47.098;15.474;2022-08-05T13:02:48;4.87;;;4.57;;
11761;SDS011;5938;47.098;15.474;2022-08-05T13:06:59;4.23;;;4.03;;
11761;SDS011;5938;47.098;15.474;2022-08-05T13:11:15;4.27;;;4.07;;
11761;SDS011;5938;47.098;15.474;2022-08-05T13:15:39;4.87;;;4.57;;
11761;SDS011;5938;47.098;15.474;2022-08-05T13:20:00;4.87;;;4.57;;
11761;SDS011;5938;47.098;15.474;2022-08-05T13:24:08;5.40;;;5.10;;
11761;SDS011;5938;47.098;15.474;2022-08-05T13:28:13;4.57;;;4.20;;
11761;SDS011;5938;47.098;15.474;2022-08-05T13:32:18;5.13;;;4.83;;
11761;SDS011;5938;47.098;15.474;2022-08-05T13:36:38;4.60;;;4.23;;
11761;SDS011;5938;47.098;15.474;2022-08-05T13:40:42;4.73;;;4.43;;
11761;SDS011;5938;47.098;15.474;2022-08-05T13:44:53;4.73;;;4.43;;
11761;SDS011;5938;47.098;15.474;2022-08-05T13:48:59;5.10;;;4.80;;
11761;SDS011;5938;47.098;15.474;2022-08-05T13:53:05;4.80;;;4.40;;
11761;SDS011;5938;47.098;15.474;2022-08-05T13:57:16;4.90;;;4.60;;
11761;SDS011;5938;47.098;15.474;2022-08-05T14:01:20;4.60;;;4.30;;
11761;SDS011;5938;47.098;15.474;2022-08-05T14:05:43;4.90;;;4.60;;
11761;SDS011;5938;47.098;15.474;2022-08-05T14:10:09;4.50;;;4.20;;
11761;SDS011;5938;47.098;15.474;2022-08-05T14:14:19;4.47;;;4.20;;
11761;SDS011;5938;47.098;15.474;2022-08-05T14:18:26;4.67;;;4.37;;
11761;SDS011;5938;47.098;15.474;2022-08-05T14:22:29;4.63;;;4.27;;
11761;SDS011;5938;47.098;15.474;2022-08-05T14:26:36;4.73;;;4.47;;
11761;SDS011;5938;47.098;15.474;2022-08-05T14:31:00;5.33;;;4.83;;
11761;SDS011;5938;47.098;15.474;2022-08-05T14:35:03;4.97;;;4.67;;
11761;SDS011;5938;47.098;15.474;2022-08-05T14:39:11;5.50;;;5.20;;
11761;SDS011;5938;47.098;15.474;2022-08-05T14:43:25;6.00;;;5.10;;
11761;SDS011;5938;47.098;15.474;2022-08-05T14:47:48;5.27;;;4.87;;
11761;SDS011;5938;47.098;15.474;2022-08-05T14:52:06;4.90;;;4.50;;
11761;SDS011;5938;47.098;15.474;2022-08-05T14:56:18;5.73;;;5.23;;
11761;SDS011;5938;47.098;15.474;2022-08-05T15:00:24;5.13;;;4.70;;
11761;SDS011;5938;47.098;15.474;2022-08-05T15:04:29;6.03;;;5.53;;
11761;SDS011;5938;47.098;15.474;2022-08-05T15:08:33;4.97;;;4.67;;
11761;SDS011;5938;47.098;15.474;2022-08-05T15:12:56;5.63;;;5.23;;
11761;SDS011;5938;47.098;15.474;2022-08-05T15:17:06;6.10;;;5.60;;
11761;SDS011;5938;47.098;15.474;2022-08-05T15:21:30;5.90;;;5.40;;
11761;SDS011;5938;47.098;15.474;2022-08-05T15:25:35;6.37;;;5.97;;
11761;SDS011;5938;47.098;15.474;2022-08-05T15:29:54;5.87;;;5.47;;
11761;SDS011;5938;47.098;15.474;2022-08-05T15:33:59;5.93;;;5.43;;
11761;SDS011;5938;47.098;15.474;2022-08-05T15:38:22;5.80;;;5.37;;
11761;SDS011;5938;47.098;15.474;2022-08-05T15:42:37;5.80;;;5.40;;
11761;SDS011;5938;47.098;15.474;2022-08-05T15:46:59;6.50;;;6.00;;
11761;SDS011;5938;47.098;15.474;2022-08-05T15:51:06;6.20;;;5.70;;
11761;SDS011;5938;47.098;15.474;2022-08-05T15:55:11;6.53;;;6.03;;
11761;SDS011;5938;47.098;15.474;2022-08-05T16:04:57;8.17;;;7.47;;
11761;SDS011;5938;47.098;15.474;2022-08-05T16:09:02;8.97;;;8.37;;
11761;SDS011;5938;47.098;15.474;2022-08-05T16:13:10;8.43;;;7.77;;
11761;SDS011;5938;47.098;15.474;2022-08-05T16:17:24;9.17;;;8.47;;
11761;SDS011;5938;47.098;15.474;2022-08-05T16:21:29;9.00;;;8.30;;
11761;SDS011;5938;47.098;15.474;2022-08-05T16:26:03;7.13;;;6.60;;
11761;SDS011;5938;47.098;15.474;2022-08-05T16:30:10;6.83;;;6.33;;
11761;SDS011;5938;47.098;15.474;2022-08-05T16:34:27;7.47;;;6.80;;
11761;SDS011;5938;47.098;15.474;2022-08-05T16:38:32;7.73;;;7.13;;
11761;SDS011;5938;47.098;15.474;2022-08-05T16:42:40;6.80;;;6.20;;
11761;SDS011;5938;47.098;15.474;2022-08-05T16:46:44;7.00;;;6.40;;
11761;SDS011;5938;47.098;15.474;2022-08-05T16:50:56;7.07;;;6.57;;
11761;SDS011;5938;47.098;15.474;2022-08-05T16:55:01;6.80;;;6.40;;
11761;SDS011;5938;47.098;15.474;2022-08-05T16:59:06;6.80;;;6.30;;
11761;SDS011;5938;47.098;15.474;2022-08-05T17:03:13;7.30;;;6.80;;
11761;SDS011;5938;47.098;15.474;2022-08-05T17:07:21;7.20;;;6.67;;
11761;SDS011;5938;47.098;15.474;2022-08-05T17:11:46;7.73;;;7.03;;
11761;SDS011;5938;47.098;15.474;2022-08-05T17:15:56;7.40;;;6.70;;
11761;SDS011;5938;47.098;15.474;2022-08-05T17:20:19;7.00;;;6.50;;
11761;SDS011;5938;47.098;15.474;2022-08-05T17:24:25;6.60;;;6.20;;
11761;SDS011;5938;47.098;15.474;2022-08-05T17:28:45;7.53;;;7.00;;
11761;SDS011;5938;47.098;15.474;2022-08-05T17:32:53;7.60;;;7.10;;
11761;SDS011;5938;47.098;15.474;2022-08-05T17:36:57;7.10;;;6.60;;
11761;SDS011;5938;47.098;15.474;2022-08-05T17:41:01;8.47;;;7.77;;
11761;SDS011;5938;47.098;15.474;2022-08-05T17:45:05;8.10;;;7.30;;
11761;SDS011;5938;47.098;15.474;2022-08-05T17:49:23;8.50;;;7.70;;
11761;SDS011;5938;47.098;15.474;2022-08-05T17:53:46;8.50;;;7.80;;
11761;SDS011;5938;47.098;15.474;2022-08-05T17:57:55;7.67;;;7.07;;
11761;SDS011;5938;47.098;15.474;2022-08-05T18:02:01;8.47;;;7.80;;
11761;SDS011;5938;47.098;15.474;2022-08-05T18:06:12;8.17;;;7.50;;
11761;SDS011;5938;47.098;15.474;2022-08-05T18:10:16;10.53;;;9.73;;
11761;SDS011;5938;47.098;15.474;2022-08-05T18:14:21;7.70;;;7.13;;
11761;SDS011;5938;47.098;15.474;2022-08-05T18:18:25;9.13;;;8.43;;
11761;SDS011;5938;47.098;15.474;2022-08-05T18:22:30;8.73;;;8.00;;
11761;SDS011;5938;47.098;15.474;2022-08-05T18:26:53;8.60;;;7.77;;
11761;SDS011;5938;47.098;15.474;2022-08-05T18:30:58;9.53;;;8.73;;
11761;SDS011;5938;47.098;15.474;2022-08-05T18:35:02;8.33;;;7.73;;
11761;SDS011;5938;47.098;15.474;2022-08-05T18:39:07;9.00;;;8.20;;
11761;SDS011;5938;47.098;15.474;2022-08-05T18:43:30;8.23;;;7.53;;
11761;SDS011;5938;47.098;15.474;2022-08-05T18:47:46;9.03;;;8.23;;
11761;SDS011;5938;47.098;15.474;2022-08-05T18:51:57;9.20;;;8.60;;
11761;SDS011;5938;47.098;15.474;2022-08-05T18:56:34;9.13;;;8.40;;
11761;SDS011;5938;47.098;15.474;2022-08-05T19:00:39;8.80;;;8.10;;
11761;SDS011;5938;47.098;15.474;2022-08-05T19:04:48;9.03;;;8.33;;
11761;SDS011;5938;47.098;15.474;2022-08-05T19:09:03;8.87;;;8.17;;
11761;SDS011;5938;47.098;15.474;2022-08-05T19:13:11;8.33;;;7.63;;
11761;SDS011;5938;47.098;15.474;2022-08-05T19:17:16;9.30;;;8.40;;
11761;SDS011;5938;47.098;15.474;2022-08-05T19:21:19;9.43;;;8.53;;
11761;SDS011;5938;47.098;15.474;2022-08-05T19:25:23;9.37;;;8.67;;
11761;SDS011;5938;47.098;15.474;2022-08-05T19:29:33;9.37;;;8.60;;
11761;SDS011;5938;47.098;15.474;2022-08-05T19:33:40;9.77;;;8.87;;
11761;SDS011;5938;47.098;15.474;2022-08-05T19:37:57;9.07;;;8.37;;
11761;SDS011;5938;47.098;15.474;2022-08-05T19:42:07;8.40;;;7.80;;
11761;SDS011;5938;47.098;15.474;2022-08-05T19:46:17;8.50;;;7.80;;
11761;SDS011;5938;47.098;15.474;2022-08-05T19:50:33;9.90;;;9.00;;
11761;SDS011;5938;47.098;15.474;2022-08-05T19:54:38;9.73;;;8.83;;
11761;SDS011;5938;47.098;15.474;2022-08-05T19:58:42;9.50;;;8.80;;
11761;SDS011;5938;47.098;15.474;2022-08-05T20:02:56;9.47;;;8.67;;
11761;SDS011;5938;47.098;15.474;2022-08-05T20:06:59;9.20;;;8.57;;
11761;SDS011;5938;47.098;15.474;2022-08-05T20:11:10;8.50;;;7.90;;
11761;SDS011;5938;47.098;15.474;2022-08-05T20:15:18;9.30;;;8.60;;
11761;SDS011;5938;47.098;15.474;2022-08-05T20:19:44;8.60;;;7.90;;
11761;SDS011;5938;47.098;15.474;2022-08-05T20:23:48;8.87;;;8.07;;
11761;SDS011;5938;47.098;15.474;2022-08-05T20:27:53;8.60;;;8.00;;
11761;SDS011;5938;47.098;15.474;2022-08-05T20:32:01;9.60;;;8.70;;
11761;SDS011;5938;47.098;15.474;2022-08-05T20:36:07;9.43;;;8.73;;
11761;SDS011;5938;47.098;15.474;2022-08-05T20:40:11;9.60;;;8.80;;
11761;SDS011;5938;47.098;15.474;2022-08-05T20:44:18;9.43;;;8.30;;
11761;SDS011;5938;47.098;15.474;2022-08-05T20:48:31;8.97;;;8.23;;
11761;SDS011;5938;47.098;15.474;2022-08-05T20:52:44;9.23;;;8.53;;
11761;SDS011;5938;47.098;15.474;2022-08-05T20:56:48;9.50;;;8.20;;
11761;SDS011;5938;47.098;15.474;2022-08-05T21:00:52;10.13;;;9.33;;
11761;SDS011;5938;47.098;15.474;2022-08-05T21:04:57;9.70;;;9.00;;
11761;SDS011;5938;47.098;15.474;2022-08-05T21:09:04;10.70;;;9.70;;
11761;SDS011;5938;47.098;15.474;2022-08-05T21:13:16;10.30;;;9.40;;
11761;SDS011;5938;47.098;15.474;2022-08-05T21:17:39;10.10;;;9.30;;
11761;SDS011;5938;47.098;15.474;2022-08-05T21:21:44;10.10;;;9.20;;
11761;SDS011;5938;47.098;15.474;2022-08-05T21:25:52;9.60;;;8.90;;
11761;SDS011;5938;47.098;15.474;2022-08-05T21:29:58;9.00;;;8.33;;
11761;SDS011;5938;47.098;15.474;2022-08-05T21:34:02;10.43;;;9.60;;
11761;SDS011;5938;47.098;15.474;2022-08-05T21:38:07;10.23;;;9.23;;
11761;SDS011;5938;47.098;15.474;2022-08-05T21:42:14;11.07;;;10.27;;
11761;SDS011;5938;47.098;15.474;2022-08-05T21:46:43;10.13;;;9.30;;
11761;SDS011;5938;47.098;15.474;2022-08-05T21:50:51;9.57;;;8.87;;
11761;SDS011;5938;47.098;15.474;2022-08-05T21:54:55;9.83;;;8.97;;
11761;SDS011;5938;47.098;15.474;2022-08-05T21:59:09;9.47;;;8.77;;
11761;SDS011;5938;47.098;15.474;2022-08-05T22:03:25;9.80;;;9.00;;
11761;SDS011;5938;47.098;15.474;2022-08-05T22:07:48;10.07;;;9.33;;
11761;SDS011;5938;47.098;15.474;2022-08-05T22:12:03;9.67;;;8.97;;
11761;SDS011;5938;47.098;15.474;2022-08-05T22:16:12;10.07;;;9.17;;
11761;SDS011;5938;47.098;15.474;2022-08-05T22:20:35;9.90;;;9.10;;
11761;SDS011;5938;47.098;15.474;2022-08-05T22:24:40;10.03;;;9.23;;
11761;SDS011;5938;47.098;15.474;2022-08-05T22:29:01;10.47;;;9.67;;
11761;SDS011;5938;47.098;15.474;2022-08-05T22:33:06;10.33;;;9.43;;
11761;SDS011;5938;47.098;15.474;2022-08-05T22:37:16;9.73;;;8.60;;
11761;SDS011;5938;47.098;15.474;2022-08-05T22:41:21;10.80;;;10.00;;
11761;SDS011;5938;47.098;15.474;2022-08-05T22:45:44;10.93;;;10.00;;
11761;SDS011;5938;47.098;15.474;2022-08-05T22:49:51;10.07;;;9.27;;
11761;SDS011;5938;47.098;15.474;2022-08-05T22:54:14;10.63;;;9.73;;
11761;SDS011;5938;47.098;15.474;2022-08-05T22:58:17;9.97;;;9.27;;
11761;SDS011;5938;47.098;15.474;2022-08-05T23:02:28;9.90;;;9.20;;
11761;SDS011;5938;47.098;15.474;2022-08-05T23:06:34;10.67;;;9.70;;
11761;SDS011;5938;47.098;15.474;2022-08-05T23:10:41;11.17;;;10.27;;
11761;SDS011;5938;47.098;15.474;2022-08-05T23:14:45;10.20;;;9.40;;
11761;SDS011;5938;47.098;15.474;2022-08-05T23:18:49;10.07;;;9.17;;
11761;SDS011;5938;47.098;15.474;2022-08-05T23:22:54;10.70;;;9.57;;
11761;SDS011;5938;47.098;15.474;2022-08-05T23:26:59;9.87;;;9.07;;
11761;SDS011;5938;47.098;15.474;2022-08-05T23:31:03;10.80;;;10.00;;
11761;SDS011;5938;47.098;15.474;2022-08-05T23:35:19;12.13;;;11.23;;
11761;SDS011;5938;47.098;15.474;2022-08-05T23:39:23;10.83;;;9.93;;
11761;SDS011;5938;47.098;15.474;2022-08-05T23:43:47;10.33;;;9.53;;
11761;SDS011;5938;47.098;15.474;2022-08-05T23:48:09;10.57;;;9.67;;
11761;SDS011;5938;47.098;15.474;2022-08-05T23:52:12;10.63;;;9.83;;
11761;SDS011;5938;47.098;15.474;2022-08-05T23:56:37;10.73;;;10.00;;
